sensor_id;sensor_type;location;lat;lon;timestamp;temperature;humidity
52879;DHT22;38747;53.140;6.498;2023-05-29T00:02:06;9.40;99.90
52879;DHT22;38747;53.140;6.498;2023-05-29T00:04:32;9.30;99.90
52879;DHT22;38747;53.140;6.498;2023-05-29T00:06:58;9.30;99.90
52879;DHT22;38747;53.140;6.498;2023-05-29T00:09:23;9.30;99.90
52879;DHT22;38747;53.140;6.498;2023-05-29T00:11:49;9.30;99.90
52879;DHT22;38747;53.140;6.498;2023-05-29T00:14:18;9.30;99.90
52879;DHT22;38747;53.140;6.498;2023-05-29T00:16:45;9.30;99.90
52879;DHT22;38747;53.140;6.498;2023-05-29T00:19:13;9.20;99.90
52879;DHT22;38747;53.140;6.498;2023-05-29T00:21:39;9.20;99.90
52879;DHT22;38747;53.140;6.498;2023-05-29T00:24:06;9.20;99.90
52879;DHT22;38747;53.140;6.498;2023-05-29T00:26:31;9.20;99.90
52879;DHT22;38747;53.140;6.498;2023-05-29T00:28:57;9.20;99.90
52879;DHT22;38747;53.140;6.498;2023-05-29T00:31:22;9.20;99.90
52879;DHT22;38747;53.140;6.498;2023-05-29T00:33:50;9.10;99.90
52879;DHT22;38747;53.140;6.498;2023-05-29T00:36:15;9.20;99.90
52879;DHT22;38747;53.140;6.498;2023-05-29T00:38:41;9.10;99.90
52879;DHT22;38747;53.140;6.498;2023-05-29T00:41:07;9.10;99.90
52879;DHT22;38747;53.140;6.498;2023-05-29T00:43:33;9.10;99.90
52879;DHT22;38747;53.140;6.498;2023-05-29T00:45:59;9.10;99.90
52879;DHT22;38747;53.140;6.498;2023-05-29T00:48:25;9.10;99.90
52879;DHT22;38747;53.140;6.498;2023-05-29T00:50:51;9.10;99.90
52879;DHT22;38747;53.140;6.498;2023-05-29T00:53:17;9.00;99.90
52879;DHT22;38747;53.140;6.498;2023-05-29T00:55:43;9.00;99.90
52879;DHT22;38747;53.140;6.498;2023-05-29T00:58:08;9.00;99.90
52879;DHT22;38747;53.140;6.498;2023-05-29T01:00:34;8.90;99.90
52879;DHT22;38747;53.140;6.498;2023-05-29T01:03:03;9.00;99.90
52879;DHT22;38747;53.140;6.498;2023-05-29T01:05:33;8.90;99.90
52879;DHT22;38747;53.140;6.498;2023-05-29T01:07:59;8.90;99.90
52879;DHT22;38747;53.140;6.498;2023-05-29T01:10:25;8.90;99.90
52879;DHT22;38747;53.140;6.498;2023-05-29T01:13:22;8.90;99.90
52879;DHT22;38747;53.140;6.498;2023-05-29T01:16:00;8.90;99.90
52879;DHT22;38747;53.140;6.498;2023-05-29T01:18:41;8.90;99.90
52879;DHT22;38747;53.140;6.498;2023-05-29T01:24:03;8.90;99.90
52879;DHT22;38747;53.140;6.498;2023-05-29T01:26:57;8.90;99.90
52879;DHT22;38747;53.140;6.498;2023-05-29T01:29:29;8.90;99.90
52879;DHT22;38747;53.140;6.498;2023-05-29T01:31:57;8.90;99.90
52879;DHT22;38747;53.140;6.498;2023-05-29T01:34:23;8.90;99.90
52879;DHT22;38747;53.140;6.498;2023-05-29T01:36:49;9.00;99.90
52879;DHT22;38747;53.140;6.498;2023-05-29T01:39:15;8.90;99.90
52879;DHT22;38747;53.140;6.498;2023-05-29T01:41:43;8.90;99.90
52879;DHT22;38747;53.140;6.498;2023-05-29T01:44:09;8.90;99.90
52879;DHT22;38747;53.140;6.498;2023-05-29T01:46:40;8.90;99.90
52879;DHT22;38747;53.140;6.498;2023-05-29T01:49:07;8.90;99.90
52879;DHT22;38747;53.140;6.498;2023-05-29T01:51:33;8.90;99.90
52879;DHT22;38747;53.140;6.498;2023-05-29T01:53:59;8.90;99.90
52879;DHT22;38747;53.140;6.498;2023-05-29T01:56:27;8.90;99.90
52879;DHT22;38747;53.140;6.498;2023-05-29T01:58:56;8.90;99.90
52879;DHT22;38747;53.140;6.498;2023-05-29T02:01:22;8.90;99.90
52879;DHT22;38747;53.140;6.498;2023-05-29T02:03:48;8.90;99.90
52879;DHT22;38747;53.140;6.498;2023-05-29T02:06:14;8.90;99.90
52879;DHT22;38747;53.140;6.498;2023-05-29T02:08:40;8.90;99.90
52879;DHT22;38747;53.140;6.498;2023-05-29T02:11:06;8.90;99.90
52879;DHT22;38747;53.140;6.498;2023-05-29T02:13:32;9.00;99.90
52879;DHT22;38747;53.140;6.498;2023-05-29T02:15:58;9.00;99.90
52879;DHT22;38747;53.140;6.498;2023-05-29T02:18:23;9.00;99.90
52879;DHT22;38747;53.140;6.498;2023-05-29T02:20:49;9.00;99.90
52879;DHT22;38747;53.140;6.498;2023-05-29T02:23:15;8.90;99.90
52879;DHT22;38747;53.140;6.498;2023-05-29T02:25:41;8.90;99.90
52879;DHT22;38747;53.140;6.498;2023-05-29T02:28:06;8.90;99.90
52879;DHT22;38747;53.140;6.498;2023-05-29T02:30:32;8.90;99.90
52879;DHT22;38747;53.140;6.498;2023-05-29T02:32:58;8.90;99.90
52879;DHT22;38747;53.140;6.498;2023-05-29T02:35:24;9.00;99.90
52879;DHT22;38747;53.140;6.498;2023-05-29T02:37:50;9.00;99.90
52879;DHT22;38747;53.140;6.498;2023-05-29T02:40:16;8.90;99.90
52879;DHT22;38747;53.140;6.498;2023-05-29T02:42:42;9.00;99.90
52879;DHT22;38747;53.140;6.498;2023-05-29T02:45:08;8.90;99.90
52879;DHT22;38747;53.140;6.498;2023-05-29T02:47:34;8.90;99.90
52879;DHT22;38747;53.140;6.498;2023-05-29T02:50:00;8.90;99.90
52879;DHT22;38747;53.140;6.498;2023-05-29T02:52:26;8.90;99.90
52879;DHT22;38747;53.140;6.498;2023-05-29T02:54:52;8.90;99.90
52879;DHT22;38747;53.140;6.498;2023-05-29T02:57:20;8.90;99.90
52879;DHT22;38747;53.140;6.498;2023-05-29T02:59:45;8.80;99.90
52879;DHT22;38747;53.140;6.498;2023-05-29T03:02:11;8.80;99.90
52879;DHT22;38747;53.140;6.498;2023-05-29T03:04:37;8.80;99.90
52879;DHT22;38747;53.140;6.498;2023-05-29T03:07:03;8.90;99.90
52879;DHT22;38747;53.140;6.498;2023-05-29T03:09:28;8.80;99.90
52879;DHT22;38747;53.140;6.498;2023-05-29T03:11:54;8.90;99.90
52879;DHT22;38747;53.140;6.498;2023-05-29T03:14:19;8.90;99.90
52879;DHT22;38747;53.140;6.498;2023-05-29T03:16:47;8.90;99.90
52879;DHT22;38747;53.140;6.498;2023-05-29T03:19:12;9.00;99.90
52879;DHT22;38747;53.140;6.498;2023-05-29T03:21:38;9.00;99.90
52879;DHT22;38747;53.140;6.498;2023-05-29T03:24:04;9.00;99.90
52879;DHT22;38747;53.140;6.498;2023-05-29T03:26:29;9.10;99.90
52879;DHT22;38747;53.140;6.498;2023-05-29T03:28:55;9.00;99.90
52879;DHT22;38747;53.140;6.498;2023-05-29T03:31:21;9.00;99.90
52879;DHT22;38747;53.140;6.498;2023-05-29T03:33:47;9.10;99.90
52879;DHT22;38747;53.140;6.498;2023-05-29T03:36:13;9.10;99.90
52879;DHT22;38747;53.140;6.498;2023-05-29T03:38:39;9.10;99.90
52879;DHT22;38747;53.140;6.498;2023-05-29T03:41:05;9.10;99.90
52879;DHT22;38747;53.140;6.498;2023-05-29T03:43:30;9.20;99.90
52879;DHT22;38747;53.140;6.498;2023-05-29T03:45:56;9.20;99.90
52879;DHT22;38747;53.140;6.498;2023-05-29T03:48:22;9.20;99.90
52879;DHT22;38747;53.140;6.498;2023-05-29T03:50:49;9.40;99.90
52879;DHT22;38747;53.140;6.498;2023-05-29T03:53:15;9.40;99.90
52879;DHT22;38747;53.140;6.498;2023-05-29T03:55:40;9.40;99.90
52879;DHT22;38747;53.140;6.498;2023-05-29T03:58:06;9.40;99.90
52879;DHT22;38747;53.140;6.498;2023-05-29T04:00:31;9.50;99.90
52879;DHT22;38747;53.140;6.498;2023-05-29T04:02:57;9.60;99.90
52879;DHT22;38747;53.140;6.498;2023-05-29T04:05:23;9.60;99.90
52879;DHT22;38747;53.140;6.498;2023-05-29T04:07:48;9.60;99.90
52879;DHT22;38747;53.140;6.498;2023-05-29T04:10:14;9.60;99.90
52879;DHT22;38747;53.140;6.498;2023-05-29T04:12:40;9.70;99.90
52879;DHT22;38747;53.140;6.498;2023-05-29T04:15:07;9.80;99.90
52879;DHT22;38747;53.140;6.498;2023-05-29T04:17:32;9.70;99.90
52879;DHT22;38747;53.140;6.498;2023-05-29T04:19:58;9.70;99.90
52879;DHT22;38747;53.140;6.498;2023-05-29T04:22:24;9.70;99.90
52879;DHT22;38747;53.140;6.498;2023-05-29T04:24:50;9.70;99.90
52879;DHT22;38747;53.140;6.498;2023-05-29T04:27:15;9.70;99.90
52879;DHT22;38747;53.140;6.498;2023-05-29T04:29:42;9.70;99.90
52879;DHT22;38747;53.140;6.498;2023-05-29T04:32:11;9.70;99.90
52879;DHT22;38747;53.140;6.498;2023-05-29T04:34:38;9.80;99.90
52879;DHT22;38747;53.140;6.498;2023-05-29T04:37:05;9.90;99.90
52879;DHT22;38747;53.140;6.498;2023-05-29T04:39:31;9.80;99.90
52879;DHT22;38747;53.140;6.498;2023-05-29T04:41:57;9.80;99.90
52879;DHT22;38747;53.140;6.498;2023-05-29T04:44:26;9.80;99.90
52879;DHT22;38747;53.140;6.498;2023-05-29T04:46:52;9.90;99.90
52879;DHT22;38747;53.140;6.498;2023-05-29T04:49:18;9.90;99.90
52879;DHT22;38747;53.140;6.498;2023-05-29T04:51:45;9.90;99.90
52879;DHT22;38747;53.140;6.498;2023-05-29T04:54:12;9.90;99.90
52879;DHT22;38747;53.140;6.498;2023-05-29T04:56:38;10.00;99.90
52879;DHT22;38747;53.140;6.498;2023-05-29T04:59:06;10.00;99.90
52879;DHT22;38747;53.140;6.498;2023-05-29T05:01:32;10.00;99.90
52879;DHT22;38747;53.140;6.498;2023-05-29T05:04:01;10.10;99.90
52879;DHT22;38747;53.140;6.498;2023-05-29T05:06:26;10.10;99.90
52879;DHT22;38747;53.140;6.498;2023-05-29T05:08:52;10.10;99.90
52879;DHT22;38747;53.140;6.498;2023-05-29T05:11:18;10.20;99.90
52879;DHT22;38747;53.140;6.498;2023-05-29T05:13:44;10.20;99.90
52879;DHT22;38747;53.140;6.498;2023-05-29T05:16:10;10.30;99.90
52879;DHT22;38747;53.140;6.498;2023-05-29T05:18:36;10.30;99.90
52879;DHT22;38747;53.140;6.498;2023-05-29T05:21:02;10.50;99.90
52879;DHT22;38747;53.140;6.498;2023-05-29T05:23:31;10.60;99.90
52879;DHT22;38747;53.140;6.498;2023-05-29T05:25:57;10.70;99.90
52879;DHT22;38747;53.140;6.498;2023-05-29T05:28:23;10.70;99.90
52879;DHT22;38747;53.140;6.498;2023-05-29T05:30:49;10.80;99.90
52879;DHT22;38747;53.140;6.498;2023-05-29T05:33:15;10.90;99.90
52879;DHT22;38747;53.140;6.498;2023-05-29T05:35:40;11.00;99.90
52879;DHT22;38747;53.140;6.498;2023-05-29T05:38:06;11.00;99.90
52879;DHT22;38747;53.140;6.498;2023-05-29T05:40:32;11.00;99.90
52879;DHT22;38747;53.140;6.498;2023-05-29T05:42:58;11.10;99.90
52879;DHT22;38747;53.140;6.498;2023-05-29T05:45:24;11.00;99.90
52879;DHT22;38747;53.140;6.498;2023-05-29T05:47:49;11.10;99.90
52879;DHT22;38747;53.140;6.498;2023-05-29T05:50:15;11.00;99.90
52879;DHT22;38747;53.140;6.498;2023-05-29T05:52:41;11.00;99.90
52879;DHT22;38747;53.140;6.498;2023-05-29T05:55:07;11.10;99.90
52879;DHT22;38747;53.140;6.498;2023-05-29T05:57:33;11.10;99.90
52879;DHT22;38747;53.140;6.498;2023-05-29T05:59:59;11.20;99.90
52879;DHT22;38747;53.140;6.498;2023-05-29T06:02:25;11.20;99.90
52879;DHT22;38747;53.140;6.498;2023-05-29T06:04:51;11.20;99.90
52879;DHT22;38747;53.140;6.498;2023-05-29T06:07:17;11.30;99.90
52879;DHT22;38747;53.140;6.498;2023-05-29T06:09:43;11.40;99.90
52879;DHT22;38747;53.140;6.498;2023-05-29T06:12:09;11.30;99.90
52879;DHT22;38747;53.140;6.498;2023-05-29T06:14:35;11.30;99.90
52879;DHT22;38747;53.140;6.498;2023-05-29T06:17:01;11.30;99.90
52879;DHT22;38747;53.140;6.498;2023-05-29T06:19:26;11.30;99.90
52879;DHT22;38747;53.140;6.498;2023-05-29T06:21:52;11.30;99.90
52879;DHT22;38747;53.140;6.498;2023-05-29T06:24:18;11.30;99.90
52879;DHT22;38747;53.140;6.498;2023-05-29T06:26:44;11.40;99.90
52879;DHT22;38747;53.140;6.498;2023-05-29T06:29:09;11.40;99.90
52879;DHT22;38747;53.140;6.498;2023-05-29T06:31:35;11.50;99.90
52879;DHT22;38747;53.140;6.498;2023-05-29T06:34:01;11.50;99.90
52879;DHT22;38747;53.140;6.498;2023-05-29T06:36:27;11.50;99.90
52879;DHT22;38747;53.140;6.498;2023-05-29T06:38:52;11.50;99.90
52879;DHT22;38747;53.140;6.498;2023-05-29T06:41:18;11.60;99.90
52879;DHT22;38747;53.140;6.498;2023-05-29T06:43:44;11.60;99.90
52879;DHT22;38747;53.140;6.498;2023-05-29T06:46:10;11.60;99.90
52879;DHT22;38747;53.140;6.498;2023-05-29T06:48:36;11.70;99.90
52879;DHT22;38747;53.140;6.498;2023-05-29T06:51:02;11.80;99.90
52879;DHT22;38747;53.140;6.498;2023-05-29T06:53:35;11.80;99.90
52879;DHT22;38747;53.140;6.498;2023-05-29T06:56:01;11.80;99.90
52879;DHT22;38747;53.140;6.498;2023-05-29T06:58:29;11.80;99.90
52879;DHT22;38747;53.140;6.498;2023-05-29T07:00:55;11.80;99.90
52879;DHT22;38747;53.140;6.498;2023-05-29T07:03:20;11.80;99.90
52879;DHT22;38747;53.140;6.498;2023-05-29T07:05:46;11.90;99.90
52879;DHT22;38747;53.140;6.498;2023-05-29T07:08:11;11.90;99.90
52879;DHT22;38747;53.140;6.498;2023-05-29T07:10:37;11.90;99.90
52879;DHT22;38747;53.140;6.498;2023-05-29T07:13:02;11.90;99.90
52879;DHT22;38747;53.140;6.498;2023-05-29T07:15:28;12.00;99.90
52879;DHT22;38747;53.140;6.498;2023-05-29T07:17:54;12.00;99.90
52879;DHT22;38747;53.140;6.498;2023-05-29T07:20:19;12.10;99.90
52879;DHT22;38747;53.140;6.498;2023-05-29T07:22:45;12.10;99.90
52879;DHT22;38747;53.140;6.498;2023-05-29T07:25:12;12.10;99.90
52879;DHT22;38747;53.140;6.498;2023-05-29T07:27:37;12.10;99.90
52879;DHT22;38747;53.140;6.498;2023-05-29T07:30:03;12.20;99.90
52879;DHT22;38747;53.140;6.498;2023-05-29T07:32:31;12.20;99.90
52879;DHT22;38747;53.140;6.498;2023-05-29T07:34:56;12.20;99.90
52879;DHT22;38747;53.140;6.498;2023-05-29T07:37:22;12.20;99.90
52879;DHT22;38747;53.140;6.498;2023-05-29T07:39:48;12.20;99.90
52879;DHT22;38747;53.140;6.498;2023-05-29T07:42:13;12.30;99.90
52879;DHT22;38747;53.140;6.498;2023-05-29T07:44:39;12.30;99.90
52879;DHT22;38747;53.140;6.498;2023-05-29T07:47:07;12.40;99.90
52879;DHT22;38747;53.140;6.498;2023-05-29T07:49:33;12.50;99.90
52879;DHT22;38747;53.140;6.498;2023-05-29T07:51:58;12.70;99.90
52879;DHT22;38747;53.140;6.498;2023-05-29T07:54:24;12.70;99.90
52879;DHT22;38747;53.140;6.498;2023-05-29T07:56:52;12.70;99.90
52879;DHT22;38747;53.140;6.498;2023-05-29T07:59:17;12.80;99.90
52879;DHT22;38747;53.140;6.498;2023-05-29T08:01:43;12.80;99.90
52879;DHT22;38747;53.140;6.498;2023-05-29T08:04:09;12.80;99.90
52879;DHT22;38747;53.140;6.498;2023-05-29T08:06:35;12.90;99.90
52879;DHT22;38747;53.140;6.498;2023-05-29T08:09:02;13.00;99.90
52879;DHT22;38747;53.140;6.498;2023-05-29T08:11:28;13.00;99.90
52879;DHT22;38747;53.140;6.498;2023-05-29T08:13:54;13.00;99.90
52879;DHT22;38747;53.140;6.498;2023-05-29T08:16:20;13.00;99.90
52879;DHT22;38747;53.140;6.498;2023-05-29T08:18:47;13.00;99.90
52879;DHT22;38747;53.140;6.498;2023-05-29T08:21:13;13.00;99.90
52879;DHT22;38747;53.140;6.498;2023-05-29T08:23:39;13.00;99.90
52879;DHT22;38747;53.140;6.498;2023-05-29T08:26:04;13.10;99.90
52879;DHT22;38747;53.140;6.498;2023-05-29T08:28:30;13.10;99.90
52879;DHT22;38747;53.140;6.498;2023-05-29T08:30:56;13.20;99.90
52879;DHT22;38747;53.140;6.498;2023-05-29T08:33:21;13.30;99.90
52879;DHT22;38747;53.140;6.498;2023-05-29T08:35:47;13.40;99.90
52879;DHT22;38747;53.140;6.498;2023-05-29T08:38:12;13.60;99.90
52879;DHT22;38747;53.140;6.498;2023-05-29T08:40:38;13.70;99.90
52879;DHT22;38747;53.140;6.498;2023-05-29T08:43:17;13.60;99.90
52879;DHT22;38747;53.140;6.498;2023-05-29T08:45:47;13.70;99.90
52879;DHT22;38747;53.140;6.498;2023-05-29T08:48:19;13.50;99.90
52879;DHT22;38747;53.140;6.498;2023-05-29T08:50:48;13.50;99.90
52879;DHT22;38747;53.140;6.498;2023-05-29T08:53:14;13.40;99.90
52879;DHT22;38747;53.140;6.498;2023-05-29T08:55:44;13.40;99.90
52879;DHT22;38747;53.140;6.498;2023-05-29T08:58:16;13.40;99.90
52879;DHT22;38747;53.140;6.498;2023-05-29T09:00:44;13.50;99.90
52879;DHT22;38747;53.140;6.498;2023-05-29T09:03:11;13.40;99.90
52879;DHT22;38747;53.140;6.498;2023-05-29T09:05:38;13.50;99.90
52879;DHT22;38747;53.140;6.498;2023-05-29T09:08:06;13.60;99.90
52879;DHT22;38747;53.140;6.498;2023-05-29T09:10:32;13.60;99.90
52879;DHT22;38747;53.140;6.498;2023-05-29T09:12:59;13.70;99.90
52879;DHT22;38747;53.140;6.498;2023-05-29T09:15:24;13.80;99.90
52879;DHT22;38747;53.140;6.498;2023-05-29T09:17:55;13.80;99.90
52879;DHT22;38747;53.140;6.498;2023-05-29T09:20:24;13.80;99.90
52879;DHT22;38747;53.140;6.498;2023-05-29T09:23:01;13.90;99.90
52879;DHT22;38747;53.140;6.498;2023-05-29T09:25:28;13.90;99.90
52879;DHT22;38747;53.140;6.498;2023-05-29T09:27:57;14.00;99.90
52879;DHT22;38747;53.140;6.498;2023-05-29T09:30:39;14.00;99.90
52879;DHT22;38747;53.140;6.498;2023-05-29T09:33:09;14.10;99.90
52879;DHT22;38747;53.140;6.498;2023-05-29T09:38:03;14.20;99.90
52879;DHT22;38747;53.140;6.498;2023-05-29T09:40:36;14.30;99.90
52879;DHT22;38747;53.140;6.498;2023-05-29T09:43:11;14.30;99.90
52879;DHT22;38747;53.140;6.498;2023-05-29T09:45:42;14.50;99.90
52879;DHT22;38747;53.140;6.498;2023-05-29T09:48:15;14.60;99.90
52879;DHT22;38747;53.140;6.498;2023-05-29T09:50:42;14.50;99.90
52879;DHT22;38747;53.140;6.498;2023-05-29T09:53:20;14.60;99.90
52879;DHT22;38747;53.140;6.498;2023-05-29T09:55:47;14.50;99.90
52879;DHT22;38747;53.140;6.498;2023-05-29T09:58:17;14.50;99.90
52879;DHT22;38747;53.140;6.498;2023-05-29T10:00:44;14.40;99.90
52879;DHT22;38747;53.140;6.498;2023-05-29T10:03:10;14.40;99.90
52879;DHT22;38747;53.140;6.498;2023-05-29T10:05:41;14.50;99.90
52879;DHT22;38747;53.140;6.498;2023-05-29T10:08:15;14.70;99.90
52879;DHT22;38747;53.140;6.498;2023-05-29T10:10:47;14.70;99.90
52879;DHT22;38747;53.140;6.498;2023-05-29T10:13:15;14.80;99.90
52879;DHT22;38747;53.140;6.498;2023-05-29T10:15:44;14.90;99.90
52879;DHT22;38747;53.140;6.498;2023-05-29T10:18:20;15.10;99.90
52879;DHT22;38747;53.140;6.498;2023-05-29T10:20:52;14.90;99.90
52879;DHT22;38747;53.140;6.498;2023-05-29T10:23:22;15.00;99.90
52879;DHT22;38747;53.140;6.498;2023-05-29T10:25:57;15.00;99.90
52879;DHT22;38747;53.140;6.498;2023-05-29T10:28:25;15.10;99.90
52879;DHT22;38747;53.140;6.498;2023-05-29T10:31:04;14.80;99.90
52879;DHT22;38747;53.140;6.498;2023-05-29T10:36:22;15.00;99.90
52879;DHT22;38747;53.140;6.498;2023-05-29T10:38:50;15.00;99.90
52879;DHT22;38747;53.140;6.498;2023-05-29T10:43:57;14.90;99.90
52879;DHT22;38747;53.140;6.498;2023-05-29T10:49:17;15.20;99.90
52879;DHT22;38747;53.140;6.498;2023-05-29T10:51:43;15.30;99.90
52879;DHT22;38747;53.140;6.498;2023-05-29T10:54:09;15.30;99.90
52879;DHT22;38747;53.140;6.498;2023-05-29T10:56:35;15.40;99.90
52879;DHT22;38747;53.140;6.498;2023-05-29T10:59:01;15.60;99.90
52879;DHT22;38747;53.140;6.498;2023-05-29T11:01:28;15.50;99.90
52879;DHT22;38747;53.140;6.498;2023-05-29T11:06:43;15.50;99.90
52879;DHT22;38747;53.140;6.498;2023-05-29T11:12:21;15.50;99.90
52879;DHT22;38747;53.140;6.498;2023-05-29T11:15:09;15.30;99.90
52879;DHT22;38747;53.140;6.498;2023-05-29T11:20:06;15.30;99.90
52879;DHT22;38747;53.140;6.498;2023-05-29T11:25:25;15.40;99.90
52879;DHT22;38747;53.140;6.498;2023-05-29T11:27:51;15.50;99.90
52879;DHT22;38747;53.140;6.498;2023-05-29T11:30:21;15.40;99.90
52879;DHT22;38747;53.140;6.498;2023-05-29T11:32:47;15.30;99.90
52879;DHT22;38747;53.140;6.498;2023-05-29T11:35:13;15.20;99.90
52879;DHT22;38747;53.140;6.498;2023-05-29T11:37:41;15.20;99.90
52879;DHT22;38747;53.140;6.498;2023-05-29T11:40:11;15.20;99.90
52879;DHT22;38747;53.140;6.498;2023-05-29T11:42:45;15.40;99.90
52879;DHT22;38747;53.140;6.498;2023-05-29T11:45:15;15.30;99.90
52879;DHT22;38747;53.140;6.498;2023-05-29T11:48:01;15.40;99.90
52879;DHT22;38747;53.140;6.498;2023-05-29T11:50:29;15.40;99.90
52879;DHT22;38747;53.140;6.498;2023-05-29T11:52:57;15.40;99.90
52879;DHT22;38747;53.140;6.498;2023-05-29T11:55:24;15.40;99.90
52879;DHT22;38747;53.140;6.498;2023-05-29T11:57:52;15.50;99.90
52879;DHT22;38747;53.140;6.498;2023-05-29T12:00:21;15.70;99.90
52879;DHT22;38747;53.140;6.498;2023-05-29T12:02:48;15.80;99.90
52879;DHT22;38747;53.140;6.498;2023-05-29T12:05:16;15.90;99.90
52879;DHT22;38747;53.140;6.498;2023-05-29T12:07:53;15.70;99.90
52879;DHT22;38747;53.140;6.498;2023-05-29T12:10:22;15.70;99.90
52879;DHT22;38747;53.140;6.498;2023-05-29T12:12:59;15.70;99.90
52879;DHT22;38747;53.140;6.498;2023-05-29T12:15:28;15.80;99.90
52879;DHT22;38747;53.140;6.498;2023-05-29T12:17:54;15.80;99.90
52879;DHT22;38747;53.140;6.498;2023-05-29T12:20:24;15.70;99.90
52879;DHT22;38747;53.140;6.498;2023-05-29T12:22:52;15.70;99.90
52879;DHT22;38747;53.140;6.498;2023-05-29T12:25:20;15.60;99.90
52879;DHT22;38747;53.140;6.498;2023-05-29T12:27:47;15.50;99.90
52879;DHT22;38747;53.140;6.498;2023-05-29T12:30:13;15.50;99.90
52879;DHT22;38747;53.140;6.498;2023-05-29T12:32:44;15.30;99.90
52879;DHT22;38747;53.140;6.498;2023-05-29T12:35:15;15.40;99.90
52879;DHT22;38747;53.140;6.498;2023-05-29T12:40:18;15.50;99.90
52879;DHT22;38747;53.140;6.498;2023-05-29T12:42:52;15.60;99.90
52879;DHT22;38747;53.140;6.498;2023-05-29T12:45:18;15.70;99.90
52879;DHT22;38747;53.140;6.498;2023-05-29T12:47:51;15.80;99.90
52879;DHT22;38747;53.140;6.498;2023-05-29T12:55:22;15.90;99.90
52879;DHT22;38747;53.140;6.498;2023-05-29T12:57:48;16.00;99.90
52879;DHT22;38747;53.140;6.498;2023-05-29T13:00:14;16.00;99.90
52879;DHT22;38747;53.140;6.498;2023-05-29T13:02:40;16.10;99.90
52879;DHT22;38747;53.140;6.498;2023-05-29T13:05:06;16.00;99.90
52879;DHT22;38747;53.140;6.498;2023-05-29T13:07:32;16.00;99.90
52879;DHT22;38747;53.140;6.498;2023-05-29T13:09:59;16.10;99.90
52879;DHT22;38747;53.140;6.498;2023-05-29T13:12:25;16.10;99.90
52879;DHT22;38747;53.140;6.498;2023-05-29T13:14:51;16.20;99.90
52879;DHT22;38747;53.140;6.498;2023-05-29T13:17:16;16.40;99.90
52879;DHT22;38747;53.140;6.498;2023-05-29T13:19:43;16.30;99.90
52879;DHT22;38747;53.140;6.498;2023-05-29T13:22:08;16.20;99.90
52879;DHT22;38747;53.140;6.498;2023-05-29T13:24:34;16.30;99.90
52879;DHT22;38747;53.140;6.498;2023-05-29T13:26:59;16.20;99.90
52879;DHT22;38747;53.140;6.498;2023-05-29T13:29:26;16.20;99.90
52879;DHT22;38747;53.140;6.498;2023-05-29T13:31:52;16.20;99.90
52879;DHT22;38747;53.140;6.498;2023-05-29T13:34:17;16.10;99.90
52879;DHT22;38747;53.140;6.498;2023-05-29T13:36:43;16.10;99.90
52879;DHT22;38747;53.140;6.498;2023-05-29T13:39:10;16.10;99.90
52879;DHT22;38747;53.140;6.498;2023-05-29T13:41:36;16.00;99.90
52879;DHT22;38747;53.140;6.498;2023-05-29T13:44:02;16.10;99.90
52879;DHT22;38747;53.140;6.498;2023-05-29T13:46:27;16.10;99.90
52879;DHT22;38747;53.140;6.498;2023-05-29T13:48:53;16.10;99.90
52879;DHT22;38747;53.140;6.498;2023-05-29T13:51:18;16.00;99.90
52879;DHT22;38747;53.140;6.498;2023-05-29T13:53:44;16.10;99.90
52879;DHT22;38747;53.140;6.498;2023-05-29T13:56:09;16.10;99.90
52879;DHT22;38747;53.140;6.498;2023-05-29T13:58:35;16.20;99.90
52879;DHT22;38747;53.140;6.498;2023-05-29T14:01:01;16.20;99.90
52879;DHT22;38747;53.140;6.498;2023-05-29T14:03:27;15.90;99.90
52879;DHT22;38747;53.140;6.498;2023-05-29T14:05:54;16.00;99.90
52879;DHT22;38747;53.140;6.498;2023-05-29T14:08:20;15.80;99.90
52879;DHT22;38747;53.140;6.498;2023-05-29T14:10:46;15.90;99.90
52879;DHT22;38747;53.140;6.498;2023-05-29T14:13:11;15.70;99.90
52879;DHT22;38747;53.140;6.498;2023-05-29T14:15:37;15.70;99.90
52879;DHT22;38747;53.140;6.498;2023-05-29T14:18:02;15.80;99.90
52879;DHT22;38747;53.140;6.498;2023-05-29T14:20:28;15.90;99.90
52879;DHT22;38747;53.140;6.498;2023-05-29T14:22:54;15.80;99.90
52879;DHT22;38747;53.140;6.498;2023-05-29T14:25:20;15.80;99.90
52879;DHT22;38747;53.140;6.498;2023-05-29T14:27:46;16.00;99.90
52879;DHT22;38747;53.140;6.498;2023-05-29T14:30:12;16.00;99.90
52879;DHT22;38747;53.140;6.498;2023-05-29T14:32:38;16.10;99.90
52879;DHT22;38747;53.140;6.498;2023-05-29T14:35:04;16.00;99.90
52879;DHT22;38747;53.140;6.498;2023-05-29T14:37:29;16.00;99.90
52879;DHT22;38747;53.140;6.498;2023-05-29T14:39:55;15.90;99.90
52879;DHT22;38747;53.140;6.498;2023-05-29T14:42:20;15.80;99.90
52879;DHT22;38747;53.140;6.498;2023-05-29T14:44:47;15.60;99.90
52879;DHT22;38747;53.140;6.498;2023-05-29T14:47:12;15.60;99.90
52879;DHT22;38747;53.140;6.498;2023-05-29T14:49:38;15.70;99.90
52879;DHT22;38747;53.140;6.498;2023-05-29T14:52:04;15.60;99.90
52879;DHT22;38747;53.140;6.498;2023-05-29T14:54:30;15.60;99.90
52879;DHT22;38747;53.140;6.498;2023-05-29T14:56:56;15.50;99.90
52879;DHT22;38747;53.140;6.498;2023-05-29T14:59:23;15.50;99.90
52879;DHT22;38747;53.140;6.498;2023-05-29T15:01:49;15.50;99.90
52879;DHT22;38747;53.140;6.498;2023-05-29T15:04:16;15.40;99.90
52879;DHT22;38747;53.140;6.498;2023-05-29T15:06:42;15.40;99.90
52879;DHT22;38747;53.140;6.498;2023-05-29T15:09:08;15.20;99.90
52879;DHT22;38747;53.140;6.498;2023-05-29T15:11:33;15.20;99.90
52879;DHT22;38747;53.140;6.498;2023-05-29T15:13:59;15.10;99.90
52879;DHT22;38747;53.140;6.498;2023-05-29T15:16:25;15.10;99.90
52879;DHT22;38747;53.140;6.498;2023-05-29T15:18:51;15.00;99.90
52879;DHT22;38747;53.140;6.498;2023-05-29T15:21:17;14.90;99.90
52879;DHT22;38747;53.140;6.498;2023-05-29T15:23:42;14.90;99.90
52879;DHT22;38747;53.140;6.498;2023-05-29T15:26:09;14.80;99.90
52879;DHT22;38747;53.140;6.498;2023-05-29T15:28:35;14.80;99.90
52879;DHT22;38747;53.140;6.498;2023-05-29T15:31:01;14.80;99.90
52879;DHT22;38747;53.140;6.498;2023-05-29T15:33:27;14.80;99.90
52879;DHT22;38747;53.140;6.498;2023-05-29T15:35:52;14.90;99.90
52879;DHT22;38747;53.140;6.498;2023-05-29T15:38:18;14.80;99.90
52879;DHT22;38747;53.140;6.498;2023-05-29T15:40:44;14.70;99.90
52879;DHT22;38747;53.140;6.498;2023-05-29T15:43:09;14.70;99.90
52879;DHT22;38747;53.140;6.498;2023-05-29T15:45:38;14.70;99.90
52879;DHT22;38747;53.140;6.498;2023-05-29T15:48:04;14.70;99.90
52879;DHT22;38747;53.140;6.498;2023-05-29T15:50:30;14.70;99.90
52879;DHT22;38747;53.140;6.498;2023-05-29T15:52:56;14.70;99.90
52879;DHT22;38747;53.140;6.498;2023-05-29T15:55:25;14.70;99.90
52879;DHT22;38747;53.140;6.498;2023-05-29T15:57:51;14.60;99.90
52879;DHT22;38747;53.140;6.498;2023-05-29T16:00:17;14.50;99.90
52879;DHT22;38747;53.140;6.498;2023-05-29T16:02:43;14.40;99.90
52879;DHT22;38747;53.140;6.498;2023-05-29T16:05:09;14.40;99.90
52879;DHT22;38747;53.140;6.498;2023-05-29T16:07:35;14.40;99.90